Time;durP1;ratioP1;P1;durP2;ratioP2;P2;SDS_P1;SDS_P2;PMS_P1;PMS_P2;Temp;Humidity;BMP_temperature;BMP_pressure;BME280_temperature;BME280_humidity;BME280_pressure;Samples;Min_cycle;Max_cycle;Signal;HPM_P1;HPM_P2
2023/05/06 00:00:05;;;;;;;6.40;4.37;;;14.70;99.90;;;;;;5079825;28;20515;-69
2023/05/06 00:02:32;;;;;;;5.40;4.17;;;14.70;99.90;;;;;;5080054;28;20628;-69
2023/05/06 00:05:00;;;;;;;7.50;5.20;;;14.60;99.90;;;;;;5080849;28;20549;-69
2023/05/06 00:07:26;;;;;;;5.73;5.00;;;14.60;99.90;;;;;;5080453;28;20841;-69
2023/05/06 00:09:53;;;;;;;7.33;5.37;;;14.60;99.90;;;;;;5080148;28;20458;-69
2023/05/06 00:12:20;;;;;;;7.67;5.00;;;14.60;99.90;;;;;;5080630;28;20447;-69
2023/05/06 00:14:48;;;;;;;5.87;4.97;;;14.60;99.90;;;;;;5080990;28;20461;-70
2023/05/06 00:17:15;;;;;;;10.53;5.27;;;14.50;99.90;;;;;;5081077;28;20549;-69
2023/05/06 00:19:43;;;;;;;7.90;6.27;;;14.40;99.90;;;;;;5080810;28;20454;-69
2023/05/06 00:22:10;;;;;;;7.17;5.03;;;14.40;99.90;;;;;;5080614;28;20450;-69
2023/05/06 00:24:37;;;;;;;9.90;5.57;;;14.30;99.90;;;;;;5081268;28;20465;-69
2023/05/06 00:27:04;;;;;;;9.13;5.50;;;14.30;99.90;;;;;;5080668;28;20935;-69
2023/05/06 00:29:30;;;;;;;9.37;5.90;;;14.20;99.90;;;;;;5080284;28;21093;-69
2023/05/06 00:31:59;;;;;;;7.30;5.57;;;14.10;99.90;;;;;;5080359;28;20549;-69
2023/05/06 00:34:25;;;;;;;11.43;6.40;;;14.00;99.90;;;;;;5079890;28;20487;-69
2023/05/06 00:36:52;;;;;;;5.80;4.97;;;14.00;99.90;;;;;;5080818;28;20592;-69
2023/05/06 00:39:19;;;;;;;6.90;5.50;;;14.00;99.90;;;;;;5080592;28;20496;-69
2023/05/06 00:41:46;;;;;;;7.10;5.73;;;13.90;99.90;;;;;;5080105;28;20457;-68
2023/05/06 00:44:13;;;;;;;6.73;5.50;;;13.90;99.90;;;;;;5081361;28;20552;-69
2023/05/06 00:46:42;;;;;;;11.50;6.60;;;13.90;99.90;;;;;;5082229;28;20461;-69
2023/05/06 00:49:12;;;;;;;11.83;6.13;;;13.80;99.90;;;;;;5082469;28;20565;-69
2023/05/06 00:51:39;;;;;;;8.00;5.63;;;13.80;99.90;;;;;;5082948;28;20814;-69
2023/05/06 00:54:06;;;;;;;10.13;6.27;;;13.70;99.90;;;;;;5083032;28;20846;-69
2023/05/06 00:56:33;;;;;;;7.80;5.53;;;13.60;99.90;;;;;;5082011;28;20490;-69
2023/05/06 00:59:00;;;;;;;7.07;5.80;;;13.60;99.90;;;;;;5082186;28;20446;-69
2023/05/06 01:01:30;;;;;;;8.60;5.90;;;13.60;99.90;;;;;;5082557;28;20451;-69
2023/05/06 01:03:57;;;;;;;6.57;5.43;;;13.60;99.90;;;;;;5081544;28;20501;-69
2023/05/06 01:06:32;;;;;;;7.43;5.70;;;13.50;99.90;;;;;;5079612;28;20454;-69
2023/05/06 01:09:05;;;;;;;7.53;5.73;;;13.50;99.90;;;;;;5081430;28;20445;-69
2023/05/06 01:11:38;;;;;;;7.00;5.00;;;13.50;99.90;;;;;;5081213;28;20474;-69
2023/05/06 01:14:12;;;;;;;5.97;5.30;;;13.40;99.90;;;;;;5081148;28;20530;-69
2023/05/06 01:16:41;;;;;;;10.83;6.90;;;13.40;99.90;;;;;;5081197;28;20809;-69
2023/05/06 01:19:10;;;;;;;7.53;5.53;;;13.30;99.90;;;;;;5081700;28;20472;-69
2023/05/06 01:21:41;;;;;;;8.67;6.47;;;13.10;99.90;;;;;;5081704;28;20486;-69
2023/05/06 01:24:09;;;;;;;6.23;5.63;;;13.10;99.90;;;;;;5081004;28;20532;-69
2023/05/06 01:26:36;;;;;;;7.50;6.50;;;13.00;99.90;;;;;;5081034;28;20454;-69
2023/05/06 01:29:03;;;;;;;6.70;6.00;;;12.90;99.90;;;;;;5081751;28;20494;-69
2023/05/06 01:31:36;;;;;;;9.97;6.50;;;12.90;99.90;;;;;;5081979;28;20613;-69
2023/05/06 01:34:10;;;;;;;10.43;6.10;;;12.80;99.90;;;;;;5082348;28;20533;-69
2023/05/06 01:36:45;;;;;;;14.17;6.20;;;12.80;99.90;;;;;;5082143;28;20886;-69
2023/05/06 01:39:17;;;;;;;16.53;6.90;;;12.70;99.90;;;;;;5082114;28;20504;-69
2023/05/06 01:41:47;;;;;;;8.43;6.10;;;12.70;99.90;;;;;;5081734;28;20517;-69
2023/05/06 01:44:16;;;;;;;7.03;5.60;;;12.60;99.90;;;;;;5082373;28;20484;-69
2023/05/06 01:46:44;;;;;;;9.57;6.30;;;12.60;99.90;;;;;;5082625;28;20557;-69
2023/05/06 01:49:11;;;;;;;8.83;5.87;;;12.50;99.90;;;;;;5082745;28;20955;-69
2023/05/06 01:51:38;;;;;;;7.70;5.57;;;12.30;99.90;;;;;;5082020;28;20543;-69
2023/05/06 01:54:05;;;;;;;8.57;5.80;;;12.30;99.90;;;;;;5083317;28;20541;-69
2023/05/06 01:56:33;;;;;;;7.40;5.80;;;12.30;99.90;;;;;;5082550;28;20450;-69
2023/05/06 01:59:00;;;;;;;6.50;5.67;;;12.30;99.90;;;;;;5082231;28;20469;-69
2023/05/06 02:01:27;;;;;;;7.90;5.33;;;12.20;99.90;;;;;;5081738;28;20461;-69
2023/05/06 02:03:54;;;;;;;7.93;5.77;;;12.10;99.90;;;;;;5081940;28;20777;-69
2023/05/06 02:06:21;;;;;;;8.60;5.97;;;12.00;99.90;;;;;;5081077;28;20468;-69
2023/05/06 02:08:48;;;;;;;9.63;6.47;;;11.90;99.90;;;;;;5081955;28;20546;-70
2023/05/06 02:11:15;;;;;;;7.43;5.63;;;11.80;99.90;;;;;;5080839;28;20478;-70
2023/05/06 02:13:43;;;;;;;11.10;6.30;;;11.70;99.90;;;;;;5081321;28;20486;-70
2023/05/06 02:16:10;;;;;;;7.57;6.00;;;11.70;99.90;;;;;;5080937;28;20454;-69
2023/05/06 02:18:37;;;;;;;12.93;5.90;;;11.60;99.90;;;;;;5081263;28;20458;-69
2023/05/06 02:21:04;;;;;;;10.70;5.70;;;11.60;99.90;;;;;;5081304;28;20537;-70
2023/05/06 02:23:31;;;;;;;8.20;6.00;;;11.60;99.90;;;;;;5079906;28;20498;-69
2023/05/06 02:25:57;;;;;;;12.50;6.50;;;11.50;99.90;;;;;;5080833;28;20454;-69
2023/05/06 02:28:24;;;;;;;6.30;5.63;;;11.50;99.90;;;;;;5080555;28;20464;-68
2023/05/06 02:30:56;;;;;;;10.13;6.30;;;11.40;99.90;;;;;;5080264;28;20500;-68
2023/05/06 02:33:23;;;;;;;11.13;6.57;;;11.40;99.90;;;;;;5080169;28;20766;-68
2023/05/06 02:35:50;;;;;;;6.60;5.77;;;11.50;99.90;;;;;;5080600;28;20930;-68
2023/05/06 02:38:18;;;;;;;9.70;5.60;;;11.50;99.90;;;;;;5079970;28;20482;-69
2023/05/06 02:40:45;;;;;;;9.77;6.27;;;11.40;99.90;;;;;;5081030;28;20465;-69
2023/05/06 02:43:12;;;;;;;8.87;6.50;;;11.40;99.90;;;;;;5080966;28;20541;-68
2023/05/06 02:45:39;;;;;;;8.37;6.30;;;11.40;99.90;;;;;;5080906;28;20533;-68
2023/05/06 02:48:07;;;;;;;8.07;6.33;;;11.40;99.90;;;;;;5080332;28;20473;-69
2023/05/06 02:50:34;;;;;;;7.90;5.97;;;11.40;99.90;;;;;;5080295;28;20513;-69
2023/05/06 02:53:01;;;;;;;10.20;5.90;;;11.30;99.90;;;;;;5080481;28;20930;-68
2023/05/06 02:55:28;;;;;;;11.10;6.23;;;11.30;99.90;;;;;;5083968;28;20537;-68
2023/05/06 02:57:55;;;;;;;9.73;5.90;;;11.30;99.90;;;;;;5080870;28;20474;-69
2023/05/06 03:00:22;;;;;;;6.43;5.83;;;11.30;99.90;;;;;;5079942;28;20500;-69
2023/05/06 03:02:49;;;;;;;6.67;5.97;;;11.30;99.90;;;;;;5079700;28;20533;-68
2023/05/06 03:05:17;;;;;;;7.83;6.50;;;11.30;99.90;;;;;;5079274;28;20550;-71
2023/05/06 03:07:44;;;;;;;10.03;6.40;;;11.30;99.90;;;;;;5080567;28;20454;-68
2023/05/06 03:10:11;;;;;;;8.60;5.70;;;11.30;99.90;;;;;;5080681;28;20548;-69
2023/05/06 03:12:38;;;;;;;9.30;5.60;;;11.30;99.90;;;;;;5079824;28;20478;-69
2023/05/06 03:15:06;;;;;;;8.40;6.30;;;11.30;99.90;;;;;;5080039;28;20536;-68
2023/05/06 03:17:33;;;;;;;10.57;6.00;;;11.20;99.90;;;;;;5079179;28;20490;-68
2023/05/06 03:19:59;;;;;;;7.93;6.37;;;11.20;99.90;;;;;;5079685;28;20541;-68
2023/05/06 03:22:28;;;;;;;8.50;6.40;;;11.20;99.90;;;;;;5078869;28;20450;-68
2023/05/06 03:24:54;;;;;;;7.17;6.30;;;11.10;99.90;;;;;;5078201;28;20546;-68
2023/05/06 03:27:21;;;;;;;10.50;7.03;;;11.10;99.90;;;;;;5077647;28;20454;-69
2023/05/06 03:29:48;;;;;;;13.47;7.93;;;11.10;99.90;;;;;;5080422;28;20454;-68
2023/05/06 03:32:15;;;;;;;6.93;6.10;;;11.00;99.90;;;;;;5082260;28;20561;-68
2023/05/06 03:34:42;;;;;;;8.43;6.40;;;11.00;99.90;;;;;;5082168;28;21002;-68
2023/05/06 03:37:09;;;;;;;8.30;6.17;;;11.00;99.90;;;;;;5081576;28;20923;-68
2023/05/06 03:39:37;;;;;;;8.00;6.03;;;11.00;99.90;;;;;;5080444;28;20808;-70
2023/05/06 03:42:04;;;;;;;7.20;6.03;;;11.00;99.90;;;;;;5080461;28;20537;-68
2023/05/06 03:44:31;;;;;;;7.97;6.33;;;11.10;99.90;;;;;;5081054;28;20827;-68
2023/05/06 03:46:58;;;;;;;8.00;6.33;;;11.10;99.90;;;;;;5079477;28;20453;-69
2023/05/06 03:49:24;;;;;;;7.90;6.27;;;11.10;99.90;;;;;;5080055;28;20490;-68
2023/05/06 03:51:52;;;;;;;11.90;7.20;;;11.10;99.90;;;;;;5080206;28;20517;-69
2023/05/06 03:54:19;;;;;;;8.23;6.27;;;11.10;99.90;;;;;;5080060;28;20519;-70
2023/05/06 03:56:47;;;;;;;9.07;6.67;;;11.10;99.90;;;;;;5081413;28;20544;-69
2023/05/06 03:59:14;;;;;;;7.10;6.30;;;11.00;99.90;;;;;;5081754;28;20537;-69
2023/05/06 04:01:41;;;;;;;7.70;6.43;;;11.00;99.90;;;;;;5080986;28;20461;-70
2023/05/06 04:04:07;;;;;;;7.20;6.00;;;11.10;99.90;;;;;;5081168;28;20550;-70
2023/05/06 04:06:34;;;;;;;10.10;6.60;;;11.10;99.90;;;;;;5081027;28;20541;-69
2023/05/06 04:09:01;;;;;;;10.77;6.70;;;11.10;99.90;;;;;;5081123;28;20887;-68
2023/05/06 04:11:28;;;;;;;9.23;6.27;;;11.10;99.90;;;;;;5081348;28;21021;-69
2023/05/06 04:13:56;;;;;;;8.27;6.20;;;11.00;99.90;;;;;;5080871;28;20493;-69
2023/05/06 04:16:23;;;;;;;10.30;7.03;;;11.00;99.90;;;;;;5081139;28;20545;-68
2023/05/06 04:18:51;;;;;;;8.73;6.57;;;11.00;99.90;;;;;;5080967;28;20569;-68
2023/05/06 04:21:18;;;;;;;11.13;6.70;;;11.00;99.90;;;;;;5080942;28;20454;-69
2023/05/06 04:23:45;;;;;;;9.43;6.43;;;11.00;99.90;;;;;;5080272;28;20537;-69
2023/05/06 04:26:12;;;;;;;8.00;6.50;;;11.00;99.90;;;;;;5080026;28;20947;-69
2023/05/06 04:28:39;;;;;;;8.60;7.00;;;10.90;99.90;;;;;;5080640;28;20541;-69
2023/05/06 04:31:07;;;;;;;10.73;6.90;;;10.90;99.90;;;;;;5080786;28;20558;-69
2023/05/06 04:33:34;;;;;;;14.20;7.47;;;11.00;99.90;;;;;;5080491;28;20737;-69
2023/05/06 04:36:02;;;;;;;10.13;6.60;;;11.00;99.90;;;;;;5080143;28;20918;-69
2023/05/06 04:38:30;;;;;;;6.93;6.20;;;11.00;99.90;;;;;;5082016;28;20481;-70
2023/05/06 04:40:58;;;;;;;11.20;6.93;;;11.00;99.90;;;;;;5080823;28;20454;-69
2023/05/06 04:43:26;;;;;;;12.30;7.10;;;11.00;99.90;;;;;;5080707;28;20795;-69
2023/05/06 04:45:54;;;;;;;8.30;7.13;;;11.00;99.90;;;;;;5079556;28;20454;-68
2023/05/06 04:48:22;;;;;;;14.10;7.77;;;11.00;99.90;;;;;;5079369;28;20861;-69
2023/05/06 04:50:50;;;;;;;8.00;7.20;;;11.00;99.90;;;;;;5078510;28;20454;-69
2023/05/06 04:53:17;;;;;;;9.00;6.30;;;11.00;99.90;;;;;;5079956;28;20576;-69
2023/05/06 04:55:44;;;;;;;9.53;7.23;;;11.00;99.90;;;;;;5080602;28;20875;-68
2023/05/06 04:58:10;;;;;;;8.83;7.03;;;11.00;99.90;;;;;;5079516;28;20847;-68
2023/05/06 05:00:37;;;;;;;14.23;7.20;;;11.10;99.90;;;;;;5078717;28;20469;-68
2023/05/06 05:03:04;;;;;;;8.10;5.77;;;11.00;99.90;;;;;;5079032;28;20546;-68
2023/05/06 05:05:33;;;;;;;10.30;6.90;;;11.00;99.90;;;;;;5078811;28;20465;-69
2023/05/06 05:08:00;;;;;;;8.23;6.67;;;11.00;99.90;;;;;;5078556;28;20466;-68
2023/05/06 05:10:26;;;;;;;9.27;7.20;;;11.10;99.90;;;;;;5078454;28;20929;-68
2023/05/06 05:12:53;;;;;;;9.70;7.07;;;11.10;99.90;;;;;;5078166;28;20484;-68
2023/05/06 05:15:21;;;;;;;10.50;6.57;;;11.00;99.90;;;;;;5079197;28;20544;-69
2023/05/06 05:17:48;;;;;;;9.90;6.60;;;11.00;99.90;;;;;;5077652;28;20454;-69
2023/05/06 05:20:14;;;;;;;7.87;7.07;;;11.00;99.90;;;;;;5077247;28;20458;-69
2023/05/06 05:22:43;;;;;;;7.70;6.87;;;11.00;99.90;;;;;;5077630;28;20549;-69
2023/05/06 05:25:10;;;;;;;9.30;7.03;;;11.00;99.90;;;;;;5078042;28;20549;-69
2023/05/06 05:27:36;;;;;;;7.87;6.40;;;11.00;99.90;;;;;;5077671;28;20454;-69
2023/05/06 05:30:04;;;;;;;9.60;6.10;;;11.00;99.90;;;;;;5078568;28;20541;-69
2023/05/06 05:32:31;;;;;;;9.40;6.43;;;11.00;99.90;;;;;;5077880;28;20478;-70
2023/05/06 05:34:58;;;;;;;8.97;6.53;;;10.90;99.90;;;;;;5078446;28;20530;-69
2023/05/06 05:37:24;;;;;;;7.83;6.40;;;10.90;99.90;;;;;;5078662;28;20465;-69
2023/05/06 05:39:53;;;;;;;10.00;6.70;;;10.90;99.90;;;;;;5078139;28;20566;-69
2023/05/06 05:42:20;;;;;;;7.53;5.90;;;11.00;99.90;;;;;;5078712;28;20528;-69
2023/05/06 05:44:46;;;;;;;8.43;6.23;;;11.00;99.90;;;;;;5078557;28;20656;-69
2023/05/06 05:47:14;;;;;;;8.07;7.00;;;11.00;99.90;;;;;;5078179;28;20458;-70
2023/05/06 05:49:41;;;;;;;9.47;6.50;;;11.00;99.90;;;;;;5078225;28;20465;-69
2023/05/06 05:52:08;;;;;;;9.80;6.33;;;11.00;99.90;;;;;;5077133;28;20799;-69
2023/05/06 05:54:35;;;;;;;7.20;6.00;;;11.00;99.90;;;;;;5077755;28;20954;-68
2023/05/06 05:57:03;;;;;;;6.80;6.10;;;10.90;99.90;;;;;;5077239;28;20769;-68
2023/05/06 05:59:31;;;;;;;9.20;6.90;;;10.90;99.90;;;;;;5077014;28;20454;-68
2023/05/06 06:01:58;;;;;;;10.03;6.87;;;10.90;99.90;;;;;;5077447;28;20454;-68
2023/05/06 06:04:25;;;;;;;10.70;7.87;;;10.90;99.90;;;;;;5077174;28;20832;-68
2023/05/06 06:06:52;;;;;;;8.40;6.80;;;10.90;99.90;;;;;;5077155;28;20792;-69
2023/05/06 06:09:19;;;;;;;9.07;7.07;;;10.90;99.90;;;;;;5077401;28;20810;-68
2023/05/06 06:11:46;;;;;;;8.70;6.83;;;10.90;99.90;;;;;;5076983;28;20903;-67
2023/05/06 06:14:14;;;;;;;9.30;6.93;;;10.90;99.90;;;;;;5077204;28;20679;-68
2023/05/06 06:16:41;;;;;;;9.43;6.63;;;10.90;99.90;;;;;;5077162;28;20469;-69
2023/05/06 06:19:08;;;;;;;8.17;6.90;;;10.90;99.90;;;;;;5077270;28;20461;-68
2023/05/06 06:21:35;;;;;;;7.53;6.43;;;10.80;99.90;;;;;;5077273;28;20468;-69
2023/05/06 06:24:02;;;;;;;11.10;6.83;;;10.80;99.90;;;;;;5076931;28;20454;-69
2023/05/06 06:26:29;;;;;;;9.80;7.73;;;10.70;99.90;;;;;;5077246;28;20816;-69
2023/05/06 06:28:56;;;;;;;9.87;6.83;;;10.60;99.90;;;;;;5077131;28;20952;-69
2023/05/06 06:31:24;;;;;;;12.50;7.23;;;10.40;99.90;;;;;;5077115;28;20462;-69
2023/05/06 06:33:51;;;;;;;9.83;7.20;;;10.50;99.90;;;;;;5077205;28;20504;-69
2023/05/06 06:36:18;;;;;;;9.53;7.13;;;10.50;99.90;;;;;;5076913;28;20465;-69
2023/05/06 06:38:45;;;;;;;11.30;7.17;;;10.50;99.90;;;;;;5076647;28;20487;-69
2023/05/06 06:41:12;;;;;;;7.60;6.57;;;10.50;99.90;;;;;;5077062;28;20458;-69
2023/05/06 06:43:38;;;;;;;10.03;7.67;;;10.50;99.90;;;;;;5077731;28;20518;-69
2023/05/06 06:46:05;;;;;;;9.30;6.70;;;10.50;99.90;;;;;;5078152;28;20549;-69
2023/05/06 06:48:33;;;;;;;8.57;6.93;;;10.60;99.90;;;;;;5078165;28;21028;-69
2023/05/06 06:51:00;;;;;;;10.03;6.63;;;10.60;99.90;;;;;;5077306;28;20466;-69
2023/05/06 06:53:27;;;;;;;9.90;6.63;;;10.70;99.90;;;;;;5076900;28;20795;-68
2023/05/06 06:55:54;;;;;;;8.87;6.70;;;10.70;99.90;;;;;;5077392;28;20462;-69
2023/05/06 06:58:21;;;;;;;8.40;6.97;;;10.80;99.90;;;;;;5077713;28;20458;-68
2023/05/06 07:00:48;;;;;;;8.20;7.40;;;10.70;99.90;;;;;;5077084;28;20458;-68
2023/05/06 07:03:18;;;;;;;10.40;6.97;;;10.80;99.90;;;;;;5076612;28;20460;-68
2023/05/06 07:05:46;;;;;;;8.90;6.80;;;10.80;99.90;;;;;;5077510;28;20529;-68
2023/05/06 07:08:13;;;;;;;11.33;7.13;;;10.80;99.90;;;;;;5077105;28;20454;-68
2023/05/06 07:10:40;;;;;;;9.37;7.67;;;10.70;99.90;;;;;;5077362;28;20454;-68
2023/05/06 07:13:08;;;;;;;10.50;8.60;;;10.70;99.90;;;;;;5077312;28;20497;-68
2023/05/06 07:15:35;;;;;;;8.90;7.00;;;10.60;99.90;;;;;;5077364;28;20462;-68
2023/05/06 07:18:02;;;;;;;9.83;8.10;;;10.60;99.90;;;;;;5077419;28;20462;-69
2023/05/06 07:20:29;;;;;;;11.37;7.47;;;10.70;99.90;;;;;;5077678;28;20454;-68
2023/05/06 07:22:58;;;;;;;9.93;7.30;;;10.70;99.90;;;;;;5077647;28;20469;-68
2023/05/06 07:25:26;;;;;;;8.80;7.90;;;10.70;99.90;;;;;;5077679;28;20481;-68
2023/05/06 07:27:53;;;;;;;10.83;8.00;;;10.80;99.90;;;;;;5076941;28;20516;-69
2023/05/06 07:30:20;;;;;;;8.63;7.57;;;10.80;99.90;;;;;;5076629;28;20459;-68
2023/05/06 07:32:47;;;;;;;8.50;7.60;;;10.70;99.90;;;;;;5076123;28;20565;-68
2023/05/06 07:35:14;;;;;;;9.63;7.97;;;10.70;99.90;;;;;;5077044;28;20511;-68
2023/05/06 07:37:41;;;;;;;9.60;7.07;;;10.70;99.90;;;;;;5076826;28;20458;-68
2023/05/06 07:40:10;;;;;;;10.00;8.00;;;10.70;99.90;;;;;;5077082;28;20786;-69
2023/05/06 07:42:36;;;;;;;12.93;9.13;;;10.70;99.90;;;;;;5076835;28;20454;-68
2023/05/06 07:45:04;;;;;;;11.13;9.50;;;10.80;99.90;;;;;;5076780;28;20460;-68
2023/05/06 07:47:32;;;;;;;10.20;8.80;;;10.80;99.90;;;;;;5077318;28;20486;-69
2023/05/06 07:49:59;;;;;;;12.07;9.53;;;10.80;99.90;;;;;;5077922;28;20545;-68
2023/05/06 07:52:27;;;;;;;10.13;8.80;;;10.70;99.90;;;;;;5077491;28;20450;-68
2023/05/06 07:54:54;;;;;;;10.00;8.40;;;10.70;99.90;;;;;;5076944;28;20772;-68
2023/05/06 07:57:22;;;;;;;9.40;8.40;;;10.70;99.90;;;;;;5076673;28;20462;-68
2023/05/06 07:59:50;;;;;;;10.13;8.77;;;10.80;99.90;;;;;;5076810;28;20454;-67
2023/05/06 08:02:17;;;;;;;9.07;8.17;;;10.80;99.90;;;;;;5077554;28;20465;-69
2023/05/06 08:04:45;;;;;;;11.47;9.30;;;10.90;99.90;;;;;;5076267;28;20895;-68
2023/05/06 08:07:13;;;;;;;9.70;8.60;;;10.90;99.90;;;;;;5076642;28;20454;-69
2023/05/06 08:09:40;;;;;;;9.40;8.47;;;10.90;99.90;;;;;;5076568;28;20454;-68
2023/05/06 08:12:07;;;;;;;9.37;8.40;;;11.00;99.90;;;;;;5076258;28;20454;-69
2023/05/06 08:14:35;;;;;;;11.90;9.13;;;11.00;99.90;;;;;;5077653;28;20477;-68
2023/05/06 08:17:02;;;;;;;18.53;10.67;;;10.90;99.90;;;;;;5079867;28;20464;-68
2023/05/06 08:19:29;;;;;;;11.80;9.90;;;11.00;99.90;;;;;;5079711;28;20480;-69
2023/05/06 08:21:56;;;;;;;13.20;9.80;;;11.00;99.90;;;;;;5079954;28;20775;-68
2023/05/06 08:24:23;;;;;;;12.87;9.80;;;11.00;99.90;;;;;;5079941;28;20456;-69
2023/05/06 08:26:50;;;;;;;14.57;11.20;;;11.00;99.90;;;;;;5079510;28;20460;-69
2023/05/06 08:29:17;;;;;;;12.03;10.10;;;11.10;99.90;;;;;;5079766;28;20458;-69
2023/05/06 08:31:45;;;;;;;13.00;9.93;;;11.10;99.90;;;;;;5079324;28;20464;-69
2023/05/06 08:34:12;;;;;;;11.00;9.90;;;11.20;99.90;;;;;;5079172;28;20528;-67
2023/05/06 08:36:39;;;;;;;13.23;9.77;;;11.20;99.90;;;;;;5079420;28;20849;-69
2023/05/06 08:39:06;;;;;;;15.13;10.67;;;11.10;99.90;;;;;;5079072;28;20524;-69
2023/05/06 08:41:36;;;;;;;11.43;10.23;;;11.10;99.90;;;;;;5079778;28;20521;-67
2023/05/06 08:44:05;;;;;;;13.10;9.90;;;11.10;99.90;;;;;;5079544;28;20473;-67
2023/05/06 08:46:31;;;;;;;14.63;11.10;;;11.10;99.90;;;;;;5079515;28;20470;-67
2023/05/06 08:49:00;;;;;;;11.20;10.03;;;11.10;99.90;;;;;;5079745;28;20912;-67
2023/05/06 08:51:29;;;;;;;12.97;11.20;;;11.10;99.90;;;;;;5080041;28;20454;-68
2023/05/06 08:53:59;;;;;;;11.23;10.13;;;11.10;99.90;;;;;;5079907;28;20481;-67
2023/05/06 08:56:30;;;;;;;12.03;10.77;;;11.10;99.90;;;;;;5079440;28;20546;-69
2023/05/06 08:58:58;;;;;;;13.27;10.80;;;11.10;99.90;;;;;;5079269;28;20465;-69
2023/05/06 09:01:26;;;;;;;12.13;10.90;;;11.20;99.90;;;;;;5079803;28;20481;-68
2023/05/06 09:03:53;;;;;;;14.97;10.73;;;11.20;99.90;;;;;;5079299;28;20477;-69
2023/05/06 09:06:22;;;;;;;12.43;11.07;;;11.30;99.90;;;;;;5079113;28;20458;-69
2023/05/06 09:08:49;;;;;;;12.80;11.40;;;11.30;99.90;;;;;;5079292;28;20549;-69
2023/05/06 09:11:23;;;;;;;12.37;10.93;;;11.30;99.90;;;;;;5079022;28;20854;-68
2023/05/06 09:13:51;;;;;;;13.80;11.53;;;11.30;99.90;;;;;;5079063;28;20477;-68
2023/05/06 09:16:28;;;;;;;14.67;10.90;;;11.40;99.90;;;;;;5079088;28;20458;-68
2023/05/06 09:18:56;;;;;;;12.53;10.20;;;11.40;99.90;;;;;;5079338;28;20519;-68
2023/05/06 09:21:30;;;;;;;10.63;9.53;;;11.40;99.90;;;;;;5078743;28;20537;-68
2023/05/06 09:23:57;;;;;;;10.67;9.57;;;11.40;99.90;;;;;;5078486;28;20526;-68
2023/05/06 09:26:25;;;;;;;12.90;10.73;;;11.40;99.90;;;;;;5077355;28;20776;-68
2023/05/06 09:28:52;;;;;;;11.20;10.10;;;11.40;99.90;;;;;;5078624;28;20922;-68
2023/05/06 09:31:19;;;;;;;12.10;10.90;;;11.40;99.90;;;;;;5078541;28;20525;-68
2023/05/06 09:33:46;;;;;;;13.27;11.30;;;11.40;99.90;;;;;;5078277;28;20874;-69
2023/05/06 09:36:13;;;;;;;12.20;10.97;;;11.50;99.90;;;;;;5078052;28;20465;-69
2023/05/06 09:38:41;;;;;;;11.60;10.07;;;11.50;99.90;;;;;;5078068;28;20935;-69
2023/05/06 09:41:10;;;;;;;11.63;10.40;;;11.60;99.90;;;;;;5078095;28;20504;-69
2023/05/06 09:43:40;;;;;;;10.30;9.20;;;11.60;99.90;;;;;;5077761;28;20457;-68
2023/05/06 09:46:07;;;;;;;10.80;9.70;;;11.60;99.90;;;;;;5078118;28;20443;-69
2023/05/06 09:48:36;;;;;;;12.83;10.37;;;11.70;99.90;;;;;;5077940;28;20476;-68
2023/05/06 09:51:04;;;;;;;11.23;9.57;;;11.70;99.90;;;;;;5078207;28;20765;-68
2023/05/06 09:53:37;;;;;;;10.30;9.30;;;11.80;99.90;;;;;;5077973;28;20474;-68
2023/05/06 09:56:07;;;;;;;9.50;8.47;;;11.80;99.90;;;;;;5077663;28;20438;-69
2023/05/06 09:58:35;;;;;;;8.97;8.17;;;11.90;99.90;;;;;;5077420;28;20493;-69
2023/05/06 10:01:05;;;;;;;9.67;8.70;;;12.00;99.90;;;;;;5077708;28;20855;-68
2023/05/06 10:03:33;;;;;;;8.47;7.60;;;12.00;99.90;;;;;;5077166;28;20537;-69
2023/05/06 10:06:01;;;;;;;9.70;8.63;;;12.10;99.90;;;;;;5077591;28;20461;-68
2023/05/06 10:08:29;;;;;;;9.90;8.53;;;12.00;99.90;;;;;;5077900;28;20465;-69
2023/05/06 10:10:56;;;;;;;9.13;8.00;;;12.00;99.90;;;;;;5077870;28;20458;-69
2023/05/06 10:13:25;;;;;;;9.33;8.43;;;12.00;99.90;;;;;;5077187;28;20484;-69
2023/05/06 10:15:52;;;;;;;9.37;8.47;;;12.00;99.90;;;;;;5077835;28;20533;-68
2023/05/06 10:18:22;;;;;;;8.13;7.33;;;12.10;99.90;;;;;;5078093;28;20454;-68
2023/05/06 10:20:52;;;;;;;8.77;7.90;;;12.00;99.90;;;;;;5077803;28;20861;-68
2023/05/06 10:23:25;;;;;;;8.23;7.40;;;12.10;99.90;;;;;;5077968;28;20523;-69
2023/05/06 10:25:57;;;;;;;8.30;7.60;;;12.10;99.90;;;;;;5076941;28;20449;-68
2023/05/06 10:28:26;;;;;;;9.07;7.73;;;12.10;99.90;;;;;;5077414;28;20470;-67
2023/05/06 10:30:56;;;;;;;8.27;7.47;;;12.10;99.90;;;;;;5076526;28;20537;-69
2023/05/06 10:33:24;;;;;;;7.97;7.27;;;12.10;99.90;;;;;;5076431;28;20486;-68
2023/05/06 10:35:56;;;;;;;8.83;8.03;;;12.10;99.90;;;;;;5077226;28;20465;-69
2023/05/06 10:38:29;;;;;;;10.43;7.87;;;12.10;99.90;;;;;;5076336;28;20486;-69
2023/05/06 10:40:59;;;;;;;9.87;8.43;;;12.00;99.90;;;;;;5076367;28;20549;-69
2023/05/06 10:43:29;;;;;;;8.33;7.53;;;12.00;99.90;;;;;;5077048;28;20456;-69
2023/05/06 10:46:05;;;;;;;8.40;7.50;;;11.80;99.90;;;;;;5076918;28;20926;-69
2023/05/06 10:48:36;;;;;;;8.73;7.23;;;11.80;99.90;;;;;;5076212;28;20454;-69
2023/05/06 10:51:23;;;;;;;9.53;7.83;;;11.80;99.90;;;;;;5076313;28;20465;-69
2023/05/06 10:53:57;;;;;;;7.03;6.33;;;11.90;99.90;;;;;;5076093;28;20988;-69
2023/05/06 10:56:25;;;;;;;7.13;6.50;;;11.90;99.90;;;;;;5076193;28;20537;-68
2023/05/06 10:58:54;;;;;;;8.23;7.43;;;12.00;99.90;;;;;;5076082;28;20458;-69
2023/05/06 11:01:22;;;;;;;7.30;6.53;;;12.00;99.90;;;;;;5076269;28;20464;-70
2023/05/06 11:03:51;;;;;;;7.30;6.60;;;12.10;99.90;;;;;;5076127;28;20481;-68
2023/05/06 11:06:49;;;;;;;6.83;6.13;;;12.10;99.90;;;;;;5076386;28;20477;-68
2023/05/06 11:09:18;;;;;;;6.67;6.07;;;12.10;99.90;;;;;;5015355;28;20468;-68
2023/05/06 11:11:57;;;;;;;6.80;6.10;;;12.10;99.90;;;;;;5064189;28;20500;-70
2023/05/06 11:14:34;;;;;;;5.80;5.30;;;12.10;99.90;;;;;;5077203;28;20609;-68
2023/05/06 11:17:02;;;;;;;5.70;5.20;;;12.00;99.90;;;;;;5077893;28;20442;-70
2023/05/06 11:19:30;;;;;;;6.77;5.07;;;11.90;99.90;;;;;;5077340;28;20458;-68
2023/05/06 11:21:58;;;;;;;5.80;5.23;;;11.90;99.90;;;;;;5076585;28;20525;-69
2023/05/06 11:24:27;;;;;;;5.43;4.93;;;11.90;99.90;;;;;;5076476;28;20541;-69
2023/05/06 11:26:55;;;;;;;5.13;4.70;;;11.90;99.90;;;;;;5076340;28;20458;-69
2023/05/06 11:29:22;;;;;;;7.23;5.33;;;12.00;99.90;;;;;;5076668;28;20462;-69
2023/05/06 11:31:52;;;;;;;6.53;5.13;;;12.00;99.90;;;;;;5076412;28;20543;-69
2023/05/06 11:34:24;;;;;;;6.50;5.63;;;11.90;99.90;;;;;;5075830;28;20482;-68
2023/05/06 11:36:55;;;;;;;4.87;4.40;;;11.90;99.90;;;;;;5076699;28;20500;-70
2023/05/06 11:39:22;;;;;;;5.10;4.60;;;11.90;99.90;;;;;;5077150;28;20482;-69
2023/05/06 11:41:49;;;;;;;5.00;4.53;;;11.90;99.90;;;;;;5075990;28;20945;-69
2023/05/06 11:44:26;;;;;;;7.50;6.50;;;11.90;99.90;;;;;;5078045;28;20490;-69
2023/05/06 11:46:59;;;;;;;5.00;4.50;;;11.80;99.90;;;;;;5077581;28;20848;-70
2023/05/06 11:49:26;;;;;;;5.53;5.03;;;11.80;99.90;;;;;;5078892;28;20465;-69
2023/05/06 11:51:54;;;;;;;5.97;4.50;;;11.80;99.90;;;;;;5080495;28;20465;-69
2023/05/06 11:54:21;;;;;;;5.20;4.33;;;11.80;99.90;;;;;;5079102;28;20478;-70
2023/05/06 11:56:53;;;;;;;5.97;4.80;;;11.80;99.90;;;;;;5079448;28;20515;-69
2023/05/06 11:59:28;;;;;;;5.07;4.67;;;11.80;99.90;;;;;;5080307;28;20463;-70
2023/05/06 12:01:59;;;;;;;5.30;4.83;;;11.80;99.90;;;;;;5079719;28;20444;-69
2023/05/06 12:04:26;;;;;;;4.70;4.20;;;11.80;99.90;;;;;;5079902;28;20438;-68
2023/05/06 12:06:54;;;;;;;5.20;4.70;;;11.80;99.90;;;;;;5079035;28;20454;-68
2023/05/06 12:09:22;;;;;;;5.10;3.80;;;11.80;99.90;;;;;;5079413;28;20845;-68
2023/05/06 12:11:50;;;;;;;4.73;4.20;;;11.90;99.90;;;;;;5079086;28;20454;-69
2023/05/06 12:14:18;;;;;;;4.30;4.00;;;11.90;99.90;;;;;;5079342;28;20844;-69
2023/05/06 12:16:45;;;;;;;4.60;4.20;;;11.90;99.90;;;;;;5078663;28;20452;-68
2023/05/06 12:19:17;;;;;;;5.63;4.63;;;11.90;99.90;;;;;;5079170;28;20553;-68
2023/05/06 12:21:45;;;;;;;5.97;4.43;;;11.90;99.90;;;;;;5079012;28;20442;-70
2023/05/06 12:24:15;;;;;;;4.37;3.97;;;11.90;99.90;;;;;;5079017;28;20464;-68
2023/05/06 12:26:49;;;;;;;4.53;3.77;;;11.90;99.90;;;;;;5079635;28;20442;-69
2023/05/06 12:29:17;;;;;;;3.97;3.67;;;12.00;99.90;;;;;;5078822;28;20442;-68
2023/05/06 12:31:46;;;;;;;4.50;4.10;;;11.90;99.90;;;;;;5078863;28;20778;-68
2023/05/06 12:34:17;;;;;;;4.90;4.40;;;11.80;99.90;;;;;;5079123;28;20813;-68
2023/05/06 12:36:46;;;;;;;6.70;4.00;;;11.80;99.90;;;;;;5079366;28;20466;-69
2023/05/06 12:39:13;;;;;;;4.30;4.00;;;11.80;99.90;;;;;;5078768;28;20550;-68
2023/05/06 12:41:45;;;;;;;4.50;4.10;;;11.80;99.90;;;;;;5079070;28;20486;-68
2023/05/06 12:44:36;;;;;;;4.40;3.87;;;11.70;99.90;;;;;;5078987;28;20506;-69
2023/05/06 12:47:06;;;;;;;4.30;3.90;;;11.80;99.90;;;;;;5078565;28;20442;-69